Time;durP1;ratioP1;P1;durP2;ratioP2;P2;SDS_P1;SDS_P2;PMS_P1;PMS_P2;Temp;Humidity;BMP_temperature;BMP_pressure;BME280_temperature;BME280_humidity;BME280_pressure;Samples;Min_cycle;Max_cycle;Signal;HPM_P1;HPM_P2
2022/10/06 00:00:49;;;;;;;;;;;13.30;99.90;;;;;;6116678;23;19929;-62
2022/10/06 00:03:15;;;;;;;;;;;13.30;99.90;;;;;;6116552;23;19925;-62
2022/10/06 00:05:40;;;;;;;;;;;13.30;99.90;;;;;;6116459;23;20166;-62
2022/10/06 00:08:06;;;;;;;;;;;13.20;99.90;;;;;;6114831;23;20038;-63
2022/10/06 00:10:32;;;;;;;;;;;13.20;99.90;;;;;;6114466;23;19925;-62
2022/10/06 00:12:57;;;;;;;;;;;13.20;99.90;;;;;;6116294;23;19924;-62
2022/10/06 00:15:28;;;;;;;;;;;13.40;99.90;;;;;;6115926;23;19932;-62
2022/10/06 00:17:54;;;;;;;;;;;13.10;99.90;;;;;;6116029;23;20004;-62
2022/10/06 00:20:19;;;;;;;;;;;13.10;99.90;;;;;;6114632;23;19929;-62
2022/10/06 00:22:46;;;;;;;;;;;13.10;99.90;;;;;;6115913;23;19983;-62
2022/10/06 00:25:13;;;;;;;;;;;13.30;99.90;;;;;;6115671;23;19985;-62
2022/10/06 00:27:40;;;;;;;;;;;13.00;99.90;;;;;;6116036;23;19925;-62
2022/10/06 00:30:07;;;;;;;;;;;12.90;99.90;;;;;;6115645;23;19971;-62
2022/10/06 00:32:33;;;;;;;;;;;12.90;99.90;;;;;;6116155;23;19925;-62
2022/10/06 00:34:58;;;;;;;;;;;12.80;99.90;;;;;;6116020;23;20099;-62
2022/10/06 00:37:25;;;;;;;;;;;12.70;99.90;;;;;;6115744;23;19957;-62
2022/10/06 00:39:50;;;;;;;;;;;12.80;99.90;;;;;;6116010;23;19978;-62
2022/10/06 00:42:23;;;;;;;;;;;12.80;99.90;;;;;;6115379;23;19924;-62
2022/10/06 00:44:49;;;;;;;;;;;12.90;99.90;;;;;;6116567;23;19925;-62
2022/10/06 00:47:15;;;;;;;;;;;12.80;99.90;;;;;;6113884;23;20217;-62
2022/10/06 00:49:40;;;;;;;;;;;12.90;99.90;;;;;;6116348;23;19944;-62
2022/10/06 00:52:07;;;;;;;;;;;12.80;99.90;;;;;;6116782;23;19924;-62
2022/10/06 00:54:34;;;;;;;;;;;12.80;99.90;;;;;;6115745;23;19932;-62
2022/10/06 00:57:01;;;;;;;;;;;12.80;99.90;;;;;;6115021;23;20362;-62
2022/10/06 00:59:26;;;;;;;;;;;12.70;99.90;;;;;;6117153;23;19925;-62
2022/10/06 01:02:04;;;;;;;;;;;12.70;99.90;;;;;;6117544;23;20343;-62
2022/10/06 01:04:31;;;;;;;;;;;12.70;99.90;;;;;;6117465;23;19965;-62
2022/10/06 01:06:57;;;;;;;;;;;12.70;99.90;;;;;;6115118;23;20266;-62
2022/10/06 01:09:23;;;;;;;;;;;12.60;99.90;;;;;;6117124;23;19990;-62
2022/10/06 01:11:51;;;;;;;;;;;12.60;99.90;;;;;;6116765;23;19932;-62
2022/10/06 01:14:18;;;;;;;;;;;12.60;99.90;;;;;;6116404;23;19929;-62
2022/10/06 01:16:46;;;;;;;;;;;12.60;99.90;;;;;;6116945;23;19932;-62
2022/10/06 01:19:19;;;;;;;;;;;12.50;99.90;;;;;;6117090;23;19987;-62
2022/10/06 01:21:45;;;;;;;;;;;12.50;99.90;;;;;;6115987;23;19924;-62
2022/10/06 01:24:11;;;;;;;;;;;12.50;99.90;;;;;;6116815;23;19932;-62
2022/10/06 01:26:39;;;;;;;;;;;12.40;99.90;;;;;;6115184;23;19925;-62
2022/10/06 01:29:05;;;;;;;;;;;12.40;99.90;;;;;;6116986;23;20010;-62
2022/10/06 01:31:31;;;;;;;;;;;12.40;99.90;;;;;;6117139;23;20286;-62
2022/10/06 01:33:56;;;;;;;;;;;12.30;99.90;;;;;;6116945;23;19929;-62
2022/10/06 01:36:22;;;;;;;;;;;12.30;99.90;;;;;;6116580;23;20003;-62
2022/10/06 01:38:47;;;;;;;;;;;12.30;99.90;;;;;;6117133;23;19932;-62
2022/10/06 01:41:13;;;;;;;;;;;12.30;99.90;;;;;;6116985;23;20379;-62
2022/10/06 01:43:38;;;;;;;;;;;12.20;99.90;;;;;;6116451;23;20355;-62
2022/10/06 01:46:04;;;;;;;;;;;12.30;99.90;;;;;;6116809;23;19979;-62
2022/10/06 01:48:30;;;;;;;;;;;12.30;99.90;;;;;;6116736;23;20004;-62
2022/10/06 01:50:55;;;;;;;;;;;12.30;99.90;;;;;;6116276;23;19925;-62
2022/10/06 01:53:21;;;;;;;;;;;12.30;99.90;;;;;;6117157;23;19925;-62
2022/10/06 01:55:47;;;;;;;;;;;12.30;99.90;;;;;;6116119;23;20004;-62
2022/10/06 01:58:12;;;;;;;;;;;12.20;99.90;;;;;;6116308;23;19964;-62
2022/10/06 02:00:38;;;;;;;;;;;12.20;99.90;;;;;;6116586;23;20621;-62
2022/10/06 02:03:04;;;;;;;;;;;12.20;99.90;;;;;;6116419;23;19925;-62
2022/10/06 02:05:30;;;;;;;;;;;12.10;99.90;;;;;;6117206;23;19955;-62
2022/10/06 02:07:55;;;;;;;;;;;12.20;99.90;;;;;;6116268;23;19929;-61
2022/10/06 02:10:21;;;;;;;;;;;12.10;99.90;;;;;;6116844;23;19925;-61
2022/10/06 02:12:50;;;;;;;;;;;12.10;99.90;;;;;;6116583;23;20409;-62
2022/10/06 02:15:16;;;;;;;;;;;12.10;99.90;;;;;;6116669;23;19967;-62
2022/10/06 02:17:41;;;;;;;;;;;12.10;99.90;;;;;;6117086;23;20263;-61
2022/10/06 02:20:07;;;;;;;;;;;12.10;99.90;;;;;;6117082;23;19925;-62
2022/10/06 02:22:36;;;;;;;;;;;12.10;99.90;;;;;;6116992;23;19948;-62
2022/10/06 02:25:02;;;;;;;;;;;12.00;99.90;;;;;;6117203;23;20224;-62
2022/10/06 02:27:27;;;;;;;;;;;12.10;99.90;;;;;;6116522;23;19932;-61
2022/10/06 02:29:54;;;;;;;;;;;12.00;99.90;;;;;;6116762;23;19932;-62
2022/10/06 02:32:20;;;;;;;;;;;12.30;99.90;;;;;;6116941;23;19933;-62
2022/10/06 02:34:45;;;;;;;;;;;12.00;99.90;;;;;;6117051;23;20385;-62
2022/10/06 02:37:11;;;;;;;;;;;12.00;99.90;;;;;;6113268;23;20271;-61
2022/10/06 02:39:37;;;;;;;;;;;11.90;99.90;;;;;;6116085;23;20295;-62
2022/10/06 02:42:03;;;;;;;;;;;11.90;99.90;;;;;;6117104;23;19991;-61
2022/10/06 02:44:28;;;;;;;;;;;11.90;99.90;;;;;;6116571;23;19948;-62
2022/10/06 02:46:55;;;;;;;;;;;11.80;99.90;;;;;;6115519;23;20339;-63
2022/10/06 02:49:20;;;;;;;;;;;11.80;99.90;;;;;;6116204;23;20387;-62
2022/10/06 02:51:46;;;;;;;;;;;11.80;99.90;;;;;;6116350;23;20008;-61
2022/10/06 02:54:11;;;;;;;;;;;11.80;99.90;;;;;;6116082;23;19996;-61
2022/10/06 02:56:37;;;;;;;;;;;11.70;99.90;;;;;;6115990;23;20347;-62
2022/10/06 02:59:02;;;;;;;;;;;11.70;99.90;;;;;;6116456;23;19932;-62
2022/10/06 03:01:28;;;;;;;;;;;11.70;99.90;;;;;;6116316;23;19932;-61
2022/10/06 03:03:53;;;;;;;;;;;11.60;99.90;;;;;;6115988;23;19951;-61
2022/10/06 03:06:20;;;;;;;;;;;11.60;99.90;;;;;;6116205;23;19929;-62
2022/10/06 03:08:49;;;;;;;;;;;11.60;99.90;;;;;;6116050;23;20291;-61
2022/10/06 03:11:18;;;;;;;;;;;11.60;99.90;;;;;;6115600;23;19925;-61
2022/10/06 03:13:44;;;;;;;;;;;11.60;99.90;;;;;;6116280;23;19925;-62
2022/10/06 03:16:17;;;;;;;;;;;11.50;99.90;;;;;;6115852;23;19944;-61
2022/10/06 03:18:43;;;;;;;;;;;11.50;99.90;;;;;;6115635;23;20237;-62
2022/10/06 03:21:09;;;;;;;;;;;11.50;99.90;;;;;;6114995;23;20004;-61
2022/10/06 03:23:34;;;;;;;;;;;11.50;99.90;;;;;;6116037;23;20002;-61
2022/10/06 03:26:00;;;;;;;;;;;11.50;99.90;;;;;;6116478;23;20347;-62
2022/10/06 03:28:26;;;;;;;;;;;11.40;99.90;;;;;;6115848;23;20267;-61
2022/10/06 03:30:53;;;;;;;;;;;11.40;99.90;;;;;;6116422;23;20276;-61
2022/10/06 03:33:19;;;;;;;;;;;11.40;99.90;;;;;;6116899;23;19992;-61
2022/10/06 03:35:44;;;;;;;;;;;11.40;99.90;;;;;;6116420;23;20363;-61
2022/10/06 03:38:10;;;;;;;;;;;11.30;99.90;;;;;;6116306;23;19932;-61
2022/10/06 03:40:35;;;;;;;;;;;11.30;99.90;;;;;;6116288;23;19925;-61
2022/10/06 03:43:01;;;;;;;;;;;11.30;99.90;;;;;;6116317;23;19933;-62
2022/10/06 03:45:26;;;;;;;;;;;11.30;99.90;;;;;;6116041;23;20004;-62
2022/10/06 03:47:53;;;;;;;;;;;11.20;99.90;;;;;;6116054;23;19936;-62
2022/10/06 03:50:19;;;;;;;;;;;11.20;99.90;;;;;;6115960;23;19925;-62
2022/10/06 03:52:50;;;;;;;;;;;11.20;99.90;;;;;;6115544;23;19925;-61
2022/10/06 03:55:15;;;;;;;;;;;11.20;99.90;;;;;;6114913;23;19931;-62
2022/10/06 03:57:41;;;;;;;;;;;11.10;99.90;;;;;;6116193;23;20259;-62
2022/10/06 04:00:07;;;;;;;;;;;11.10;99.90;;;;;;6114169;23;19925;-62
2022/10/06 04:02:32;;;;;;;;;;;11.10;99.90;;;;;;6115641;23;19931;-61
2022/10/06 04:04:58;;;;;;;;;;;11.10;99.90;;;;;;6116263;23;19932;-61
2022/10/06 04:07:23;;;;;;;;;;;11.00;99.90;;;;;;6114202;23;19925;-61
2022/10/06 04:09:49;;;;;;;;;;;11.10;99.90;;;;;;6116209;23;19929;-61
2022/10/06 04:12:14;;;;;;;;;;;10.90;99.90;;;;;;6114336;23;19924;-61
2022/10/06 04:14:40;;;;;;;;;;;10.90;99.90;;;;;;6115551;23;20004;-62
2022/10/06 04:17:06;;;;;;;;;;;10.90;99.90;;;;;;6116219;23;20047;-63
2022/10/06 04:19:31;;;;;;;;;;;10.90;99.90;;;;;;6114358;23;19952;-62
2022/10/06 04:21:57;;;;;;;;;;;10.90;99.90;;;;;;6116065;23;19925;-62
2022/10/06 04:24:22;;;;;;;;;;;10.90;99.90;;;;;;6116074;23;19932;-61
2022/10/06 04:26:48;;;;;;;;;;;10.90;99.90;;;;;;6115965;23;19932;-61
2022/10/06 04:29:14;;;;;;;;;;;10.80;99.90;;;;;;6113924;23;19925;-61
2022/10/06 04:31:41;;;;;;;;;;;10.80;99.90;;;;;;6115533;23;20274;-62
2022/10/06 04:34:08;;;;;;;;;;;10.80;99.90;;;;;;6116405;23;19924;-61
2022/10/06 04:36:35;;;;;;;;;;;10.80;99.90;;;;;;6115799;23;19925;-62
2022/10/06 04:39:02;;;;;;;;;;;10.70;99.90;;;;;;6115797;23;19929;-62
2022/10/06 04:41:30;;;;;;;;;;;10.80;99.90;;;;;;6115953;23;19925;-61
2022/10/06 04:43:55;;;;;;;;;;;10.80;99.90;;;;;;6115112;23;19925;-62
2022/10/06 04:46:22;;;;;;;;;;;10.80;99.90;;;;;;6116025;23;20469;-61
2022/10/06 04:48:51;;;;;;;;;;;11.00;99.90;;;;;;6115952;23;19925;-62
2022/10/06 04:51:16;;;;;;;;;;;10.70;99.90;;;;;;6116093;23;19928;-61
2022/10/06 04:53:45;;;;;;;;;;;10.60;99.90;;;;;;6114809;23;20239;-61
2022/10/06 04:56:15;;;;;;;;;;;10.70;99.90;;;;;;6113209;23;19936;-62
2022/10/06 04:58:42;;;;;;;;;;;10.60;99.90;;;;;;6113409;23;19964;-61
2022/10/06 05:01:23;;;;;;;;;;;10.60;99.90;;;;;;6114192;23;20332;-62
2022/10/06 05:03:50;;;;;;;;;;;10.60;99.90;;;;;;6114995;23;20332;-61
2022/10/06 05:06:26;;;;;;;;;;;10.60;99.90;;;;;;6115586;23;19929;-61
2022/10/06 05:08:53;;;;;;;;;;;10.60;99.90;;;;;;6115702;23;20321;-61
2022/10/06 05:11:19;;;;;;;;;;;10.60;99.90;;;;;;6115209;23;19931;-61
2022/10/06 05:13:45;;;;;;;;;;;10.50;99.90;;;;;;6115861;23;19924;-62
2022/10/06 05:16:13;;;;;;;;;;;10.50;99.90;;;;;;6114649;23;19929;-61
2022/10/06 05:18:39;;;;;;;;;;;10.50;99.90;;;;;;6114379;23;20000;-61
2022/10/06 05:21:05;;;;;;;;;;;10.50;99.90;;;;;;6113945;23;19960;-62
2022/10/06 05:23:32;;;;;;;;;;;10.40;99.90;;;;;;6114454;23;19924;-62
2022/10/06 05:25:59;;;;;;;;;;;10.40;99.90;;;;;;6114413;23;20407;-61
2022/10/06 05:28:25;;;;;;;;;;;10.60;99.90;;;;;;6115757;23;19932;-61
2022/10/06 05:31:06;;;;;;;;;;;10.40;99.90;;;;;;6115747;23;20255;-61
2022/10/06 05:33:33;;;;;;;;;;;10.30;99.90;;;;;;6115026;23;20033;-61
2022/10/06 05:36:26;;;;;;;;;;;10.30;99.90;;;;;;6114378;23;20220;-62
2022/10/06 05:38:52;;;;;;;;;;;10.40;99.90;;;;;;6117419;23;19924;-62
2022/10/06 05:41:20;;;;;;;;;;;10.50;99.90;;;;;;6116130;23;19976;-61
2022/10/06 05:43:45;;;;;;;;;;;10.40;99.90;;;;;;6115948;23;19925;-61
2022/10/06 05:46:18;;;;;;;;;;;10.40;99.90;;;;;;6116317;23;19940;-63
2022/10/06 05:48:45;;;;;;;;;;;10.40;99.90;;;;;;6112719;23;20430;-63
2022/10/06 05:51:11;;;;;;;;;;;10.40;99.90;;;;;;6116893;23;19925;-62
2022/10/06 05:53:36;;;;;;;;;;;10.50;99.90;;;;;;6115107;23;20014;-62
2022/10/06 05:56:02;;;;;;;;;;;10.50;99.90;;;;;;6115027;23;19964;-62
2022/10/06 05:58:27;;;;;;;;;;;10.50;99.90;;;;;;6114387;23;19951;-62
2022/10/06 06:00:53;;;;;;;;;;;10.50;99.90;;;;;;6116324;23;20007;-61
2022/10/06 06:03:19;;;;;;;;;;;10.60;99.90;;;;;;6116931;23;19978;-62
2022/10/06 06:05:44;;;;;;;;;;;10.60;99.90;;;;;;6116514;23;19931;-62
2022/10/06 06:08:10;;;;;;;;;;;10.60;99.90;;;;;;6117071;23;19929;-62
2022/10/06 06:10:36;;;;;;;;;;;10.70;99.90;;;;;;6116574;23;19925;-62
2022/10/06 06:13:02;;;;;;;;;;;10.80;99.90;;;;;;6116174;23;20004;-61
2022/10/06 06:16:13;;;;;;;;;;;10.70;99.90;;;;;;6116930;23;19927;-62
2022/10/06 06:18:13;;;;;;;;;;;10.70;99.90;;;;;;6126204;23;20430;-66
2022/10/06 06:20:39;;;;;;;;;;;10.80;99.90;;;;;;6116060;23;20002;-62
2022/10/06 06:23:04;;;;;;;;;;;11.00;99.90;;;;;;6116841;23;19925;-65
2022/10/06 06:25:30;;;;;;;;;;;11.10;99.90;;;;;;6116578;23;19929;-63
2022/10/06 06:27:56;;;;;;;;;;;11.10;99.90;;;;;;6116247;23;19925;-61
2022/10/06 06:30:22;;;;;;;;;;;11.20;99.90;;;;;;6116672;23;19924;-65
2022/10/06 06:32:48;;;;;;;;;;;11.30;99.90;;;;;;6116856;23;19931;-65
2022/10/06 06:35:14;;;;;;;;;;;12.20;99.90;;;;;;6116704;23;19925;-64
2022/10/06 06:37:39;;;;;;;;;;;11.30;99.90;;;;;;6117467;23;19996;-62
2022/10/06 06:40:05;;;;;;;;;;;11.30;99.90;;;;;;6116999;23;19925;-62
2022/10/06 06:42:31;;;;;;;;;;;11.30;99.90;;;;;;6116902;23;19925;-62
2022/10/06 06:44:56;;;;;;;;;;;11.30;99.90;;;;;;6116507;23;19987;-63
2022/10/06 06:47:22;;;;;;;;;;;11.40;99.90;;;;;;6117108;23;19967;-62
2022/10/06 06:49:47;;;;;;;;;;;11.50;99.90;;;;;;6116167;23;19956;-63
2022/10/06 06:52:13;;;;;;;;;;;11.50;99.90;;;;;;6115850;23;19932;-65
2022/10/06 06:54:39;;;;;;;;;;;11.50;99.90;;;;;;6115913;23;19932;-62
2022/10/06 06:57:05;;;;;;;;;;;11.70;99.90;;;;;;6116157;23;19932;-65
2022/10/06 06:59:32;;;;;;;;;;;11.90;99.90;;;;;;6116758;23;19970;-64
2022/10/06 07:01:58;;;;;;;;;;;11.80;99.90;;;;;;6115610;23;20310;-64
2022/10/06 07:04:24;;;;;;;;;;;11.80;99.90;;;;;;6115256;23;19932;-63
2022/10/06 07:06:55;;;;;;;;;;;11.80;99.90;;;;;;6115645;23;19936;-64
2022/10/06 07:09:22;;;;;;;;;;;11.90;99.90;;;;;;6116701;23;20358;-62
2022/10/06 07:11:49;;;;;;;;;;;11.90;99.90;;;;;;6116057;23;20351;-65
2022/10/06 07:14:14;;;;;;;;;;;12.00;99.90;;;;;;6117045;23;19971;-64
2022/10/06 07:25:11;;;;;;;;;;;12.20;99.90;;;;;;6116524;23;20414;-63
2022/10/06 07:27:41;;;;;;;;;;;12.40;99.90;;;;;;6115464;23;20362;-63
2022/10/06 07:30:08;;;;;;;;;;;12.50;99.90;;;;;;6114896;23;19925;-64
2022/10/06 07:32:34;;;;;;;;;;;12.60;99.90;;;;;;6112386;23;20413;-65
2022/10/06 07:34:59;;;;;;;;;;;12.70;99.90;;;;;;6115397;23;19929;-65
2022/10/06 07:37:26;;;;;;;;;;;12.80;99.90;;;;;;6116539;23;20309;-63
2022/10/06 07:39:51;;;;;;;;;;;12.80;99.90;;;;;;6114355;23;19957;-63
2022/10/06 07:42:17;;;;;;;;;;;12.80;99.90;;;;;;6115643;23;19932;-65
2022/10/06 07:44:43;;;;;;;;;;;12.90;99.90;;;;;;6115445;23;19986;-65
2022/10/06 07:47:09;;;;;;;;;;;13.00;99.90;;;;;;6115495;23;19932;-63
2022/10/06 07:49:35;;;;;;;;;;;13.00;99.90;;;;;;6115357;23;19924;-64
2022/10/06 07:52:01;;;;;;;;;;;13.00;99.90;;;;;;6114278;23;19929;-64
2022/10/06 07:54:27;;;;;;;;;;;13.10;99.90;;;;;;6115529;23;19932;-66
2022/10/06 07:56:53;;;;;;;;;;;13.30;99.90;;;;;;6115440;23;19925;-65
2022/10/06 07:59:19;;;;;;;;;;;13.50;99.90;;;;;;6113398;23;19924;-65
2022/10/06 08:01:45;;;;;;;;;;;13.50;99.90;;;;;;6113993;23;19951;-66
2022/10/06 08:04:13;;;;;;;;;;;13.60;99.90;;;;;;6115655;23;20268;-66
2022/10/06 08:06:39;;;;;;;;;;;13.70;99.90;;;;;;6115841;23;19925;-64
2022/10/06 08:09:05;;;;;;;;;;;13.60;99.90;;;;;;6116049;23;19971;-64
2022/10/06 08:11:31;;;;;;;;;;;13.70;99.90;;;;;;6113167;23;19925;-65
2022/10/06 08:13:56;;;;;;;;;;;13.70;99.90;;;;;;6116422;23;19925;-65
2022/10/06 08:16:23;;;;;;;;;;;13.80;99.90;;;;;;6115729;23;19925;-65
2022/10/06 08:18:49;;;;;;;;;;;13.70;99.90;;;;;;6116446;23;19925;-65
2022/10/06 08:21:16;;;;;;;;;;;13.70;99.90;;;;;;6116261;23;19932;-63
2022/10/06 08:23:43;;;;;;;;;;;13.80;99.90;;;;;;6116079;23;19925;-63
2022/10/06 08:26:09;;;;;;;;;;;13.80;99.90;;;;;;6116027;23;19992;-65
2022/10/06 08:28:35;;;;;;;;;;;13.80;99.90;;;;;;6116412;23;19932;-63
2022/10/06 08:31:10;;;;;;;;;;;13.90;99.90;;;;;;6116301;23;19929;-64
2022/10/06 08:33:37;;;;;;;;;;;14.00;99.90;;;;;;6116057;23;19929;-63
2022/10/06 08:36:03;;;;;;;;;;;14.30;99.90;;;;;;6116162;23;19925;-63
2022/10/06 08:38:30;;;;;;;;;;;14.30;99.90;;;;;;6115831;23;19932;-66
2022/10/06 08:40:55;;;;;;;;;;;14.30;99.90;;;;;;6112278;23;19925;-66
2022/10/06 08:43:23;;;;;;;;;;;14.50;99.90;;;;;;6114493;23;20243;-65
2022/10/06 08:45:51;;;;;;;;;;;14.70;99.90;;;;;;6115174;23;19925;-63
2022/10/06 08:48:18;;;;;;;;;;;15.00;99.90;;;;;;6114743;23;20063;-65
2022/10/06 08:50:43;;;;;;;;;;;15.30;99.90;;;;;;6113021;23;19925;-66
2022/10/06 08:53:28;;;;;;;;;;;15.50;99.90;;;;;;6113512;23;19948;-63
2022/10/06 08:55:59;;;;;;;;;;;15.70;99.90;;;;;;6114901;23;20359;-65
2022/10/06 08:58:29;;;;;;;;;;;15.80;99.90;;;;;;6115525;23;19929;-66
2022/10/06 09:01:13;;;;;;;;;;;16.00;99.90;;;;;;6115623;23;19925;-66
2022/10/06 09:03:39;;;;;;;;;;;16.40;99.90;;;;;;6116576;23;20268;-66
2022/10/06 09:06:11;;;;;;;;;;;16.50;99.90;;;;;;6115835;23;19955;-66
2022/10/06 09:08:42;;;;;;;;;;;16.90;99.90;;;;;;6115185;23;19949;-64
2022/10/06 09:11:20;;;;;;;;;;;17.30;99.90;;;;;;6116853;23;20465;-67
2022/10/06 09:13:51;;;;;;;;;;;17.50;99.90;;;;;;6109792;23;19968;-66
2022/10/06 09:16:20;;;;;;;;;;;17.40;99.90;;;;;;6115127;23;19947;-64
2022/10/06 09:18:48;;;;;;;;;;;17.40;99.90;;;;;;6114682;23;20622;-64
2022/10/06 09:21:29;;;;;;;;;;;17.50;99.90;;;;;;6114536;23;19925;-63
2022/10/06 09:24:01;;;;;;;;;;;17.00;99.90;;;;;;6114079;23;19925;-65
2022/10/06 09:26:30;;;;;;;;;;;17.20;99.90;;;;;;6113588;23;19932;-64
2022/10/06 09:28:56;;;;;;;;;;;16.70;99.90;;;;;;6116354;23;20043;-63
2022/10/06 09:31:22;;;;;;;;;;;17.00;99.90;;;;;;6116064;23;19974;-64
2022/10/06 09:34:14;;;;;;;;;;;17.00;99.90;;;;;;6114364;23;19932;-64
2022/10/06 09:36:58;;;;;;;;;;;16.90;99.90;;;;;;6128405;23;19929;-63
2022/10/06 09:39:25;;;;;;;;;;;17.20;99.90;;;;;;6113056;23;19925;-65
2022/10/06 09:41:50;;;;;;;;;;;17.40;99.90;;;;;;6116004;23;19983;-63
2022/10/06 09:44:23;;;;;;;;;;;17.10;99.90;;;;;;6116211;23;19928;-63
2022/10/06 09:46:51;;;;;;;;;;;17.50;99.90;;;;;;6114139;23;19932;-63
2022/10/06 09:49:18;;;;;;;;;;;17.90;99.90;;;;;;6116343;23;19925;-64
2022/10/06 09:51:59;;;;;;;;;;;18.00;99.90;;;;;;6115337;23;20332;-64
2022/10/06 09:54:25;;;;;;;;;;;18.20;99.90;;;;;;6115460;23;19928;-65
2022/10/06 09:56:54;;;;;;;;;;;17.80;99.90;;;;;;6116130;23;20249;-64
2022/10/06 09:59:21;;;;;;;;;;;18.00;99.90;;;;;;6116255;23;19925;-64
2022/10/06 10:01:54;;;;;;;;;;;18.50;99.90;;;;;;6115574;23;19974;-64
2022/10/06 10:04:40;;;;;;;;;;;17.90;99.90;;;;;;6116140;23;20370;-64
2022/10/06 10:07:25;;;;;;;;;;;18.00;99.90;;;;;;6116076;23;20403;-64
2022/10/06 10:10:09;;;;;;;;;;;18.60;99.90;;;;;;6116394;23;20012;-64
2022/10/06 10:12:35;;;;;;;;;;;18.10;99.90;;;;;;6115082;23;20498;-63
2022/10/06 10:15:23;;;;;;;;;;;18.40;99.90;;;;;;6116797;23;19955;-63
2022/10/06 10:17:50;;;;;;;;;;;18.50;99.90;;;;;;6116986;23;19925;-65
2022/10/06 10:20:27;;;;;;;;;;;18.30;99.90;;;;;;6115382;23;20383;-64
2022/10/06 10:22:54;;;;;;;;;;;18.40;99.90;;;;;;6115391;23;19931;-64
2022/10/06 10:25:31;;;;;;;;;;;18.60;99.90;;;;;;6114663;23;19932;-63
2022/10/06 10:28:02;;;;;;;;;;;18.40;99.90;;;;;;6114862;23;19925;-63
2022/10/06 10:30:31;;;;;;;;;;;18.60;99.90;;;;;;6115939;23;19932;-63
2022/10/06 10:33:03;;;;;;;;;;;18.70;99.90;;;;;;6114158;23;19925;-64
2022/10/06 10:35:30;;;;;;;;;;;18.80;99.90;;;;;;6113455;23;19924;-64
2022/10/06 10:37:59;;;;;;;;;;;18.10;99.90;;;;;;6115569;23;19924;-65
2022/10/06 10:40:30;;;;;;;;;;;18.50;99.90;;;;;;6115936;23;19952;-64
2022/10/06 10:43:16;;;;;;;;;;;18.70;99.90;;;;;;6114317;23;20298;-64
2022/10/06 10:46:08;;;;;;;;;;;19.10;99.90;;;;;;6120077;23;20371;-65
2022/10/06 10:48:43;;;;;;;;;;;18.90;99.90;;;;;;6116611;23;19931;-63
2022/10/06 10:51:14;;;;;;;;;;;18.70;99.90;;;;;;6115859;23;20251;-63
2022/10/06 10:53:46;;;;;;;;;;;19.00;99.90;;;;;;6115973;23;19929;-65
2022/10/06 10:56:15;;;;;;;;;;;18.70;99.90;;;;;;6116019;23;19979;-64
2022/10/06 10:58:41;;;;;;;;;;;18.60;99.90;;;;;;6115413;23;19959;-64
2022/10/06 11:01:07;;;;;;;;;;;18.70;99.90;;;;;;6115705;23;19925;-64
2022/10/06 11:03:33;;;;;;;;;;;18.60;99.90;;;;;;6116889;23;20349;-64
2022/10/06 11:05:59;;;;;;;;;;;18.60;99.90;;;;;;6113013;23;19954;-64
2022/10/06 11:08:29;;;;;;;;;;;18.70;99.90;;;;;;6116441;23;19996;-64
2022/10/06 11:10:57;;;;;;;;;;;18.90;99.90;;;;;;6115640;23;19929;-64
2022/10/06 11:13:35;;;;;;;;;;;18.80;99.90;;;;;;6115600;23;19992;-63
2022/10/06 11:16:19;;;;;;;;;;;19.00;99.90;;;;;;6115774;23;20306;-65
2022/10/06 11:19:01;;;;;;;;;;;19.20;99.90;;;;;;6113393;23;19931;-64
2022/10/06 11:21:27;;;;;;;;;;;19.40;99.90;;;;;;6116119;23;20290;-64
2022/10/06 11:24:01;;;;;;;;;;;18.80;99.90;;;;;;6114552;23;19967;-63
2022/10/06 11:26:52;;;;;;;;;;;18.90;99.90;;;;;;6113805;23;20000;-64
2022/10/06 11:29:21;;;;;;;;;;;19.10;99.90;;;;;;6116488;23;19925;-64
2022/10/06 11:31:53;;;;;;;;;;;19.30;99.90;;;;;;6114555;23;20004;-65
2022/10/06 11:34:19;;;;;;;;;;;19.20;99.90;;;;;;6113350;23;19925;-64
2022/10/06 11:36:49;;;;;;;;;;;19.50;99.90;;;;;;6114927;23;19924;-63
2022/10/06 11:39:25;;;;;;;;;;;19.90;99.90;;;;;;6112982;23;19978;-63
2022/10/06 11:41:53;;;;;;;;;;;19.50;99.90;;;;;;6115548;23;19928;-64
2022/10/06 11:44:37;;;;;;;;;;;19.50;99.90;;;;;;6114688;23;19929;-64
2022/10/06 11:47:08;;;;;;;;;;;19.90;99.90;;;;;;6115344;23;19931;-64
2022/10/06 11:49:33;;;;;;;;;;;19.90;99.90;;;;;;6115680;23;20030;-64
2022/10/06 11:52:05;;;;;;;;;;;19.50;99.90;;;;;;6113734;23;20339;-64
2022/10/06 11:54:39;;;;;;;;;;;19.90;99.90;;;;;;6115480;23;19952;-64
2022/10/06 11:57:23;;;;;;;;;;;20.70;99.90;;;;;;6115617;23;19924;-64
2022/10/06 11:59:54;;;;;;;;;;;20.80;99.90;;;;;;6115892;23;19964;-63
2022/10/06 12:02:38;;;;;;;;;;;20.90;99.90;;;;;;6115529;23;19925;-64
2022/10/06 12:05:13;;;;;;;;;;;21.10;99.90;;;;;;6114721;23;19924;-68
2022/10/06 12:07:50;;;;;;;;;;;21.60;99.90;;;;;;6115784;23;19925;-66
2022/10/06 12:10:28;;;;;;;;;;;22.50;99.30;;;;;;6115408;23;19925;-67
2022/10/06 12:13:09;;;;;;;;;;;22.30;98.90;;;;;;6115921;23;19991;-67
2022/10/06 12:15:37;;;;;;;;;;;22.00;98.40;;;;;;6115071;23;20379;-65
2022/10/06 12:18:03;;;;;;;;;;;21.10;97.70;;;;;;6114958;23;19932;-66
2022/10/06 12:20:34;;;;;;;;;;;20.00;99.10;;;;;;6115450;23;19924;-63
2022/10/06 12:23:19;;;;;;;;;;;20.00;99.70;;;;;;6113828;23;20256;-64
2022/10/06 12:25:54;;;;;;;;;;;19.90;99.70;;;;;;6115631;23;20339;-63
2022/10/06 12:28:36;;;;;;;;;;;19.80;99.80;;;;;;6115329;23;19980;-64
2022/10/06 12:31:02;;;;;;;;;;;19.60;99.90;;;;;;6116075;23;19925;-63
2022/10/06 12:33:41;;;;;;;;;;;19.30;99.90;;;;;;6114946;23;19978;-64
2022/10/06 12:36:21;;;;;;;;;;;19.40;99.90;;;;;;6115063;23;20355;-64
2022/10/06 12:39:00;;;;;;;;;;;19.30;99.90;;;;;;6114492;23;19925;-63
2022/10/06 12:41:44;;;;;;;;;;;19.00;99.90;;;;;;6115026;23;19929;-64
2022/10/06 12:44:20;;;;;;;;;;;19.10;99.90;;;;;;6115154;23;20301;-64
2022/10/06 12:46:46;;;;;;;;;;;19.20;99.90;;;;;;6116308;23;19925;-64
2022/10/06 12:49:25;;;;;;;;;;;19.30;99.90;;;;;;6116452;23;20350;-64
2022/10/06 12:51:52;;;;;;;;;;;19.30;99.90;;;;;;6116679;23;19929;-63
2022/10/06 12:54:18;;;;;;;;;;;18.80;99.90;;;;;;6114894;23;19979;-64
2022/10/06 12:56:55;;;;;;;;;;;18.60;99.90;;;;;;6114202;23;20000;-64
2022/10/06 12:59:21;;;;;;;;;;;18.50;99.90;;;;;;6116844;23;20311;-64
2022/10/06 13:01:48;;;;;;;;;;;18.50;99.90;;;;;;6115020;23;19932;-64
2022/10/06 13:04:33;;;;;;;;;;;18.50;99.90;;;;;;6115964;23;19960;-63
2022/10/06 13:07:01;;;;;;;;;;;18.40;99.90;;;;;;6116012;23;20387;-63
2022/10/06 13:09:26;;;;;;;;;;;18.40;99.90;;;;;;6115538;23;19929;-64
2022/10/06 13:11:52;;;;;;;;;;;18.30;99.90;;;;;;6115594;23;20012;-63
2022/10/06 13:14:17;;;;;;;;;;;18.50;99.90;;;;;;6115293;23;19970;-63
2022/10/06 13:16:46;;;;;;;;;;;18.30;99.90;;;;;;6115417;23;20050;-63
2022/10/06 13:19:20;;;;;;;;;;;18.60;99.90;;;;;;6114624;23;19970;-63
2022/10/06 13:21:46;;;;;;;;;;;18.60;99.90;;;;;;6115655;23;20359;-64
2022/10/06 13:24:13;;;;;;;;;;;18.50;99.90;;;;;;6114994;23;19925;-63
2022/10/06 13:26:39;;;;;;;;;;;18.60;99.90;;;;;;6112428;23;19925;-64
2022/10/06 13:29:15;;;;;;;;;;;18.60;99.90;;;;;;6114119;23;19963;-63
2022/10/06 13:31:44;;;;;;;;;;;18.60;99.90;;;;;;6112352;23;19935;-64
2022/10/06 13:34:18;;;;;;;;;;;18.40;99.90;;;;;;6114740;23;20370;-64
2022/10/06 13:36:45;;;;;;;;;;;18.40;99.90;;;;;;6115486;23;20371;-63
2022/10/06 13:39:15;;;;;;;;;;;18.80;99.90;;;;;;6115141;23;19929;-65
2022/10/06 13:41:51;;;;;;;;;;;19.60;99.90;;;;;;6114888;23;19929;-65
2022/10/06 13:44:17;;;;;;;;;;;19.80;99.90;;;;;;6114083;23;19925;-63
2022/10/06 13:46:44;;;;;;;;;;;19.60;99.90;;;;;;6114992;23;19932;-64
2022/10/06 13:49:10;;;;;;;;;;;20.40;99.90;;;;;;6114635;23;19925;-63
2022/10/06 13:51:35;;;;;;;;;;;20.20;99.40;;;;;;6115460;23;20362;-64
2022/10/06 13:54:20;;;;;;;;;;;20.30;99.20;;;;;;6115391;23;19925;-63
2022/10/06 13:56:45;;;;;;;;;;;22.80;98.50;;;;;;6115263;23;19925;-64
2022/10/06 13:59:29;;;;;;;;;;;23.10;97.40;;;;;;6115400;23;19932;-63
2022/10/06 14:01:56;;;;;;;;;;;23.80;96.60;;;;;;6115104;23;20022;-63
2022/10/06 14:04:23;;;;;;;;;;;23.00;96.30;;;;;;6114694;23;20502;-63
2022/10/06 14:06:56;;;;;;;;;;;20.80;97.60;;;;;;6115199;23;20328;-64
2022/10/06 14:09:25;;;;;;;;;;;19.90;98.50;;;;;;6115825;23;19924;-65
2022/10/06 14:11:52;;;;;;;;;;;19.00;99.50;;;;;;6115516;23;20424;-63
2022/10/06 14:14:18;;;;;;;;;;;18.70;99.90;;;;;;6115715;23;19964;-65
2022/10/06 14:16:49;;;;;;;;;;;18.60;99.90;;;;;;6114621;23;19932;-63
2022/10/06 14:19:33;;;;;;;;;;;18.60;99.90;;;;;;6115277;23;19932;-64
2022/10/06 14:21:59;;;;;;;;;;;18.50;99.90;;;;;;6115224;23;19932;-64
2022/10/06 14:24:27;;;;;;;;;;;18.60;99.90;;;;;;6115478;23;19925;-65
2022/10/06 14:26:53;;;;;;;;;;;18.20;99.90;;;;;;6115169;23;19929;-63
2022/10/06 14:29:19;;;;;;;;;;;18.50;99.90;;;;;;6115613;23;19932;-64
2022/10/06 14:31:45;;;;;;;;;;;18.10;99.90;;;;;;6115009;23;19925;-63
2022/10/06 14:34:15;;;;;;;;;;;18.20;99.90;;;;;;6115191;23;19974;-63